Time;durP1;ratioP1;P1;durP2;ratioP2;P2;SDS_P1;SDS_P2;PMS_P1;PMS_P2;Temp;Humidity;BMP_temperature;BMP_pressure;BME280_temperature;BME280_humidity;BME280_pressure;Samples;Min_cycle;Max_cycle;Signal;HPM_P1;HPM_P2
2023/09/23 00:00:14;;;;;;;0.50;0.20;;;;;;;;;;470672;28;2015;-73
2023/09/23 00:00:29;;;;;;;0.70;0.30;;;;;;;;;;468927;28;1019;-73
2023/09/23 00:00:49;;;;;;;1.77;0.40;;;;;;;;;;468852;28;970;-73
2023/09/23 00:01:05;;;;;;;1.83;0.38;;;;;;;;;;468909;28;1153;-73
2023/09/23 00:01:20;;;;;;;1.10;0.30;;;;;;;;;;466741;28;977;-73
2023/09/23 00:01:37;;;;;;;0.80;0.20;;;;;;;;;;466982;28;1563;-73
2023/09/23 00:01:53;;;;;;;0.38;0.20;;;;;;;;;;469311;28;926;-73
2023/09/23 00:02:09;;;;;;;0.70;0.20;;;;;;;;;;467170;28;1345;-73
2023/09/23 00:02:25;;;;;;;0.73;0.20;;;;;;;;;;466908;28;1279;-73
2023/09/23 00:02:43;;;;;;;0.50;0.20;;;;;;;;;;467109;28;1487;-73
2023/09/23 00:02:59;;;;;;;0.50;0.22;;;;;;;;;;469549;28;1288;-73
2023/09/23 00:03:16;;;;;;;0.47;0.30;;;;;;;;;;467516;28;1131;-73
2023/09/23 00:03:33;;;;;;;0.65;0.20;;;;;;;;;;470448;28;907;-73
2023/09/23 00:03:49;;;;;;;0.40;0.20;;;;;;;;;;471722;28;1127;-73
2023/09/23 00:04:05;;;;;;;0.43;0.30;;;;;;;;;;471333;28;960;-73
2023/09/23 00:04:20;;;;;;;1.17;0.30;;;;;;;;;;471729;28;1287;-73
2023/09/23 00:04:36;;;;;;;1.92;0.35;;;;;;;;;;468860;28;1136;-72
2023/09/23 00:04:51;;;;;;;1.13;0.23;;;;;;;;;;467098;28;1173;-73
2023/09/23 00:05:09;;;;;;;0.77;0.20;;;;;;;;;;465718;28;1496;-73
2023/09/23 00:05:26;;;;;;;1.60;0.30;;;;;;;;;;464052;28;1157;-73
2023/09/23 00:05:43;;;;;;;0.90;0.30;;;;;;;;;;465265;28;1270;-73
2023/09/23 00:06:00;;;;;;;0.55;0.20;;;;;;;;;;463456;28;1323;-72
2023/09/23 00:06:15;;;;;;;0.93;0.22;;;;;;;;;;466199;28;1535;-73
2023/09/23 00:06:31;;;;;;;1.00;0.20;;;;;;;;;;468315;28;1384;-73
2023/09/23 00:06:49;;;;;;;0.68;0.10;;;;;;;;;;466829;28;999;-72
2023/09/23 00:07:04;;;;;;;1.30;0.30;;;;;;;;;;468052;28;958;-73
2023/09/23 00:07:20;;;;;;;1.00;0.30;;;;;;;;;;467167;28;1084;-73
2023/09/23 00:07:36;;;;;;;0.60;0.30;;;;;;;;;;467130;28;1074;-73
2023/09/23 00:07:52;;;;;;;0.60;0.30;;;;;;;;;;468032;28;1434;-73
2023/09/23 00:08:08;;;;;;;0.50;0.30;;;;;;;;;;468273;28;1083;-73
2023/09/23 00:08:23;;;;;;;0.57;0.30;;;;;;;;;;466377;28;1268;-73
2023/09/23 00:08:41;;;;;;;1.00;0.30;;;;;;;;;;465905;28;1334;-73
2023/09/23 00:08:56;;;;;;;0.90;0.20;;;;;;;;;;465022;28;974;-73
2023/09/23 00:09:16;;;;;;;0.70;0.20;;;;;;;;;;465209;28;1054;-73
2023/09/23 00:09:32;;;;;;;0.82;0.22;;;;;;;;;;470116;28;1330;-73
2023/09/23 00:09:47;;;;;;;0.60;0.20;;;;;;;;;;471139;28;1146;-73
2023/09/23 00:10:06;;;;;;;0.20;0.20;;;;;;;;;;467681;28;1041;-74
2023/09/23 00:10:21;;;;;;;0.20;0.20;;;;;;;;;;469238;28;1139;-73
2023/09/23 00:10:38;;;;;;;0.40;0.20;;;;;;;;;;468885;28;1268;-73
2023/09/23 00:10:53;;;;;;;0.65;0.20;;;;;;;;;;469261;28;1275;-74
2023/09/23 00:11:09;;;;;;;0.63;0.23;;;;;;;;;;468271;28;1102;-72
2023/09/23 00:11:24;;;;;;;0.85;0.30;;;;;;;;;;466308;28;1301;-73
2023/09/23 00:11:40;;;;;;;0.80;0.30;;;;;;;;;;466058;28;880;-73
2023/09/23 00:11:56;;;;;;;0.45;0.22;;;;;;;;;;465094;28;1500;-73
2023/09/23 00:12:12;;;;;;;0.70;0.27;;;;;;;;;;467923;28;1304;-73
2023/09/23 00:12:30;;;;;;;1.00;0.30;;;;;;;;;;468154;28;1146;-73
2023/09/23 00:12:46;;;;;;;1.20;0.30;;;;;;;;;;467812;28;1346;-73
2023/09/23 00:13:02;;;;;;;1.00;0.30;;;;;;;;;;468358;28;1030;-72
2023/09/23 00:13:20;;;;;;;0.98;0.38;;;;;;;;;;466962;28;1091;-73
2023/09/23 00:13:35;;;;;;;0.80;0.30;;;;;;;;;;465133;28;1279;-73
2023/09/23 00:13:51;;;;;;;0.30;0.30;;;;;;;;;;466648;28;924;-73
2023/09/23 00:14:06;;;;;;;0.37;0.30;;;;;;;;;;467445;28;1243;-73
2023/09/23 00:14:22;;;;;;;0.63;0.20;;;;;;;;;;468356;28;1268;-73
2023/09/23 00:14:37;;;;;;;0.68;0.22;;;;;;;;;;466618;28;1113;-73
2023/09/23 00:14:54;;;;;;;0.30;0.23;;;;;;;;;;466468;28;1272;-73
2023/09/23 00:15:13;;;;;;;0.32;0.20;;;;;;;;;;467105;28;1016;-73
2023/09/23 00:15:28;;;;;;;0.63;0.20;;;;;;;;;;465617;28;1070;-73
2023/09/23 00:15:44;;;;;;;0.52;0.20;;;;;;;;;;464007;28;1311;-73
2023/09/23 00:16:00;;;;;;;0.30;0.20;;;;;;;;;;464451;28;1123;-73
2023/09/23 00:16:15;;;;;;;0.50;0.30;;;;;;;;;;463115;28;1303;-73
2023/09/23 00:16:32;;;;;;;0.40;0.30;;;;;;;;;;465708;28;1285;-73
2023/09/23 00:16:47;;;;;;;0.20;0.20;;;;;;;;;;466157;28;1235;-73
2023/09/23 00:17:03;;;;;;;0.90;0.20;;;;;;;;;;463576;28;1243;-74
2023/09/23 00:17:19;;;;;;;0.95;0.20;;;;;;;;;;463532;28;2402;-73
2023/09/23 00:17:45;;;;;;;0.73;0.20;;;;;;;;;;468544;28;966;-73
2023/09/23 00:18:02;;;;;;;0.70;0.20;;;;;;;;;;465857;28;1252;-73
2023/09/23 00:18:18;;;;;;;0.60;0.20;;;;;;;;;;466979;28;1197;-73
2023/09/23 00:18:33;;;;;;;0.55;0.20;;;;;;;;;;466099;28;1006;-73
2023/09/23 00:18:48;;;;;;;0.50;0.20;;;;;;;;;;467475;28;1700;-73
2023/09/23 00:19:04;;;;;;;0.50;0.20;;;;;;;;;;469681;28;1111;-72
2023/09/23 00:19:19;;;;;;;0.50;0.20;;;;;;;;;;467477;28;1316;-73
2023/09/23 00:19:35;;;;;;;0.55;0.30;;;;;;;;;;469628;28;886;-73
2023/09/23 00:19:50;;;;;;;0.80;0.30;;;;;;;;;;470764;28;1082;-73
2023/09/23 00:20:14;;;;;;;0.90;0.20;;;;;;;;;;467452;28;1953;-73
2023/09/23 00:20:30;;;;;;;1.00;0.20;;;;;;;;;;471264;28;1231;-73
2023/09/23 00:20:46;;;;;;;0.90;0.23;;;;;;;;;;469328;28;1111;-73
2023/09/23 00:21:05;;;;;;;0.70;0.30;;;;;;;;;;469551;28;1335;-73
2023/09/23 00:21:21;;;;;;;0.52;0.30;;;;;;;;;;465287;28;1620;-73
2023/09/23 00:21:38;;;;;;;0.40;0.20;;;;;;;;;;465262;28;1228;-73
2023/09/23 00:21:54;;;;;;;0.57;0.20;;;;;;;;;;466756;28;1167;-73
2023/09/23 00:22:12;;;;;;;0.70;0.20;;;;;;;;;;466895;28;992;-73
2023/09/23 00:22:27;;;;;;;0.45;0.20;;;;;;;;;;469830;28;970;-73
2023/09/23 00:22:46;;;;;;;0.20;0.20;;;;;;;;;;468561;28;1107;-73
2023/09/23 00:23:03;;;;;;;0.50;0.20;;;;;;;;;;469223;28;1073;-73
2023/09/23 00:23:20;;;;;;;0.60;0.20;;;;;;;;;;469208;28;1126;-73
2023/09/23 00:23:35;;;;;;;0.50;0.30;;;;;;;;;;466522;28;1234;-73
2023/09/23 00:23:50;;;;;;;1.07;0.37;;;;;;;;;;468581;28;1165;-73
2023/09/23 00:24:08;;;;;;;1.65;0.30;;;;;;;;;;466591;28;1253;-73
2023/09/23 00:24:24;;;;;;;0.82;0.20;;;;;;;;;;465638;28;1072;-73
2023/09/23 00:24:39;;;;;;;0.40;0.20;;;;;;;;;;464736;28;1115;-72
2023/09/23 00:24:54;;;;;;;0.83;0.20;;;;;;;;;;463942;28;1060;-73
2023/09/23 00:25:09;;;;;;;0.80;0.20;;;;;;;;;;467171;28;1145;-73
2023/09/23 00:25:25;;;;;;;0.30;0.20;;;;;;;;;;470201;28;1304;-72
2023/09/23 00:25:40;;;;;;;0.40;0.20;;;;;;;;;;466895;28;1265;-73
2023/09/23 00:25:56;;;;;;;1.20;0.20;;;;;;;;;;466834;28;1078;-73
2023/09/23 00:26:17;;;;;;;1.40;0.20;;;;;;;;;;466828;28;1006;-72
2023/09/23 00:26:32;;;;;;;0.45;0.20;;;;;;;;;;464388;28;1128;-73
2023/09/23 00:26:48;;;;;;;0.63;0.22;;;;;;;;;;461926;28;1346;-73
2023/09/23 00:27:04;;;;;;;0.60;0.30;;;;;;;;;;462732;28;1418;-73
2023/09/23 00:27:19;;;;;;;0.77;0.30;;;;;;;;;;461620;28;1641;-72
2023/09/23 00:27:35;;;;;;;1.15;0.30;;;;;;;;;;462822;28;903;-73
2023/09/23 00:27:54;;;;;;;1.57;0.40;;;;;;;;;;463995;28;1281;-73
2023/09/23 00:28:11;;;;;;;1.23;0.30;;;;;;;;;;465748;28;903;-73
2023/09/23 00:28:30;;;;;;;1.20;0.35;;;;;;;;;;464809;28;1224;-73
2023/09/23 00:28:46;;;;;;;0.80;0.30;;;;;;;;;;465152;28;1298;-73
2023/09/23 00:29:01;;;;;;;0.30;0.20;;;;;;;;;;466373;28;1339;-72
2023/09/23 00:29:17;;;;;;;0.60;0.30;;;;;;;;;;470712;28;1196;-73
2023/09/23 00:29:32;;;;;;;1.20;0.30;;;;;;;;;;467220;28;1132;-72
2023/09/23 00:29:49;;;;;;;1.03;0.30;;;;;;;;;;465452;28;1239;-72
2023/09/23 00:30:05;;;;;;;0.45;0.25;;;;;;;;;;465086;28;2112;-73
2023/09/23 00:30:22;;;;;;;0.82;0.20;;;;;;;;;;465535;28;1171;-73
2023/09/23 00:30:38;;;;;;;0.45;0.20;;;;;;;;;;467623;28;1293;-73
2023/09/23 00:30:53;;;;;;;1.00;0.30;;;;;;;;;;469117;28;1031;-73
2023/09/23 00:31:11;;;;;;;1.10;0.20;;;;;;;;;;469522;28;1113;-73
2023/09/23 00:31:29;;;;;;;1.30;0.20;;;;;;;;;;461916;28;1115;-73
2023/09/23 00:31:44;;;;;;;0.95;0.20;;;;;;;;;;466323;28;1170;-73
2023/09/23 00:32:00;;;;;;;0.32;0.25;;;;;;;;;;465194;28;1249;-73
2023/09/23 00:32:17;;;;;;;1.20;0.30;;;;;;;;;;471609;28;1096;-73
2023/09/23 00:32:32;;;;;;;1.05;0.30;;;;;;;;;;467301;28;1147;-73
2023/09/23 00:32:48;;;;;;;0.20;0.20;;;;;;;;;;468595;28;1458;-73
2023/09/23 00:33:04;;;;;;;0.20;0.20;;;;;;;;;;470647;28;1468;-73
2023/09/23 00:33:19;;;;;;;0.30;0.30;;;;;;;;;;482231;28;1172;-73
2023/09/23 00:33:37;;;;;;;0.30;0.30;;;;;;;;;;479489;28;1221;-73
2023/09/23 00:33:52;;;;;;;0.20;0.20;;;;;;;;;;477997;28;1176;-73
2023/09/23 00:34:08;;;;;;;0.68;0.17;;;;;;;;;;482065;28;1122;-73
2023/09/23 00:34:23;;;;;;;0.90;0.20;;;;;;;;;;482455;28;1149;-73
2023/09/23 00:34:39;;;;;;;0.50;0.20;;;;;;;;;;473590;28;1215;-73
2023/09/23 00:34:55;;;;;;;1.25;0.30;;;;;;;;;;490597;28;1119;-73
2023/09/23 00:35:11;;;;;;;1.17;0.20;;;;;;;;;;479128;28;1029;-73
2023/09/23 00:35:28;;;;;;;0.70;0.20;;;;;;;;;;477955;28;1306;-73
2023/09/23 00:35:44;;;;;;;0.75;0.30;;;;;;;;;;480542;28;982;-73
2023/09/23 00:36:00;;;;;;;0.40;0.30;;;;;;;;;;468156;28;1276;-73
2023/09/23 00:36:15;;;;;;;0.30;0.20;;;;;;;;;;478038;28;1246;-73
2023/09/23 00:36:30;;;;;;;0.27;0.27;;;;;;;;;;472187;28;1403;-73
2023/09/23 00:36:46;;;;;;;0.25;0.20;;;;;;;;;;465009;28;1060;-73
2023/09/23 00:37:02;;;;;;;0.43;0.23;;;;;;;;;;474476;28;1115;-73
2023/09/23 00:37:18;;;;;;;0.50;0.30;;;;;;;;;;466170;28;926;-73
2023/09/23 00:37:33;;;;;;;0.35;0.30;;;;;;;;;;473107;28;987;-73
2023/09/23 00:37:49;;;;;;;1.00;0.20;;;;;;;;;;472901;28;1187;-73
2023/09/23 00:38:05;;;;;;;1.10;0.20;;;;;;;;;;463717;28;1173;-72
2023/09/23 00:38:21;;;;;;;0.60;0.20;;;;;;;;;;463548;28;1259;-73
2023/09/23 00:38:38;;;;;;;0.60;0.30;;;;;;;;;;465111;28;1223;-73
2023/09/23 00:38:55;;;;;;;1.58;0.28;;;;;;;;;;469099;28;1153;-73
2023/09/23 00:39:11;;;;;;;1.58;0.25;;;;;;;;;;469949;28;1598;-73
2023/09/23 00:39:26;;;;;;;1.02;0.30;;;;;;;;;;470491;28;1221;-72
2023/09/23 00:39:45;;;;;;;1.23;0.30;;;;;;;;;;468565;28;1169;-73
2023/09/23 00:40:00;;;;;;;1.27;0.40;;;;;;;;;;466732;28;1190;-72
2023/09/23 00:40:27;;;;;;;1.20;0.30;;;;;;;;;;464789;28;1990;-73
2023/09/23 00:40:44;;;;;;;0.40;0.30;;;;;;;;;;468570;28;1220;-73
2023/09/23 00:40:59;;;;;;;0.57;0.30;;;;;;;;;;466105;28;1334;-73
2023/09/23 00:41:15;;;;;;;0.68;0.28;;;;;;;;;;462376;28;1647;-73
2023/09/23 00:41:30;;;;;;;0.70;0.20;;;;;;;;;;467928;28;1053;-71
2023/09/23 00:41:46;;;;;;;0.50;0.27;;;;;;;;;;469575;28;1110;-71
2023/09/23 00:42:03;;;;;;;0.90;0.30;;;;;;;;;;467184;28;1252;-71
2023/09/23 00:42:21;;;;;;;1.42;0.25;;;;;;;;;;470579;28;1283;-71
2023/09/23 00:42:38;;;;;;;0.98;0.30;;;;;;;;;;466595;28;1097;-71
2023/09/23 00:42:56;;;;;;;0.63;0.30;;;;;;;;;;466628;28;1244;-71
2023/09/23 00:43:12;;;;;;;0.65;0.30;;;;;;;;;;468142;28;1177;-71
2023/09/23 00:43:27;;;;;;;1.17;0.40;;;;;;;;;;467693;28;1161;-71
2023/09/23 00:43:43;;;;;;;1.30;0.40;;;;;;;;;;469284;28;1129;-71
2023/09/23 00:44:01;;;;;;;0.73;0.30;;;;;;;;;;466921;28;1271;-71
2023/09/23 00:44:16;;;;;;;0.60;0.25;;;;;;;;;;465794;28;1824;-71
2023/09/23 00:44:31;;;;;;;0.60;0.20;;;;;;;;;;466135;28;1266;-71
2023/09/23 00:44:47;;;;;;;1.03;0.30;;;;;;;;;;465539;28;1141;-71
2023/09/23 00:45:03;;;;;;;1.00;0.30;;;;;;;;;;466494;28;1216;-71
2023/09/23 00:45:20;;;;;;;0.88;0.30;;;;;;;;;;466565;28;1129;-71
2023/09/23 00:45:35;;;;;;;0.80;0.30;;;;;;;;;;465895;28;1309;-71
2023/09/23 00:45:54;;;;;;;0.63;0.30;;;;;;;;;;464354;28;1272;-71
2023/09/23 00:46:10;;;;;;;1.10;0.40;;;;;;;;;;462963;28;1389;-71
2023/09/23 00:46:26;;;;;;;0.70;0.37;;;;;;;;;;464912;28;1024;-71
2023/09/23 00:46:42;;;;;;;0.60;0.30;;;;;;;;;;462569;28;1158;-71
2023/09/23 00:46:58;;;;;;;0.60;0.30;;;;;;;;;;468463;28;1178;-71
2023/09/23 00:47:14;;;;;;;1.23;0.30;;;;;;;;;;480473;28;1083;-71
2023/09/23 00:47:31;;;;;;;1.10;0.30;;;;;;;;;;478623;28;989;-71
2023/09/23 00:47:48;;;;;;;0.57;0.38;;;;;;;;;;481738;28;1133;-71
2023/09/23 00:48:08;;;;;;;0.68;0.38;;;;;;;;;;477935;28;1292;-71
2023/09/23 00:48:23;;;;;;;0.40;0.30;;;;;;;;;;475891;28;1265;-72
2023/09/23 00:48:43;;;;;;;0.30;0.30;;;;;;;;;;474848;28;1202;-72
2023/09/23 00:49:01;;;;;;;0.60;0.20;;;;;;;;;;470480;28;1249;-71
2023/09/23 00:49:16;;;;;;;0.70;0.30;;;;;;;;;;477637;28;1407;-71
2023/09/23 00:49:32;;;;;;;1.05;0.20;;;;;;;;;;473299;28;1142;-71
2023/09/23 00:49:48;;;;;;;1.58;0.20;;;;;;;;;;477630;28;1353;-71
2023/09/23 00:50:04;;;;;;;1.17;0.30;;;;;;;;;;476869;28;1538;-71
2023/09/23 00:50:20;;;;;;;0.70;0.30;;;;;;;;;;477456;28;1333;-71
2023/09/23 00:50:35;;;;;;;0.90;0.30;;;;;;;;;;472863;28;1263;-71
2023/09/23 00:50:53;;;;;;;1.00;0.30;;;;;;;;;;474092;28;1212;-71
2023/09/23 00:51:09;;;;;;;1.83;0.30;;;;;;;;;;472113;28;1290;-71
2023/09/23 00:51:25;;;;;;;2.05;0.30;;;;;;;;;;476787;28;1264;-74
2023/09/23 00:51:40;;;;;;;1.30;0.30;;;;;;;;;;476815;28;1291;-73
2023/09/23 00:51:56;;;;;;;0.80;0.30;;;;;;;;;;475008;28;1235;-73
2023/09/23 00:52:14;;;;;;;0.70;0.30;;;;;;;;;;473595;28;1192;-73
2023/09/23 00:52:29;;;;;;;1.08;0.30;;;;;;;;;;465400;28;1577;-73
2023/09/23 00:52:51;;;;;;;0.68;0.30;;;;;;;;;;471687;28;1017;-73
2023/09/23 00:53:08;;;;;;;0.85;0.40;;;;;;;;;;474673;28;1323;-73
2023/09/23 00:53:25;;;;;;;1.02;0.40;;;;;;;;;;468795;28;1466;-72
2023/09/23 00:53:40;;;;;;;1.08;0.30;;;;;;;;;;476911;28;1152;-73
2023/09/23 00:53:57;;;;;;;1.00;0.30;;;;;;;;;;474351;28;1210;-72
2023/09/23 00:54:17;;;;;;;0.35;0.30;;;;;;;;;;475862;28;998;-73
2023/09/23 00:54:36;;;;;;;0.55;0.22;;;;;;;;;;471762;28;1404;-72
2023/09/23 00:54:52;;;;;;;0.93;0.30;;;;;;;;;;478815;28;1245;-73
2023/09/23 00:55:08;;;;;;;0.60;0.30;;;;;;;;;;479600;28;1281;-72
2023/09/23 00:55:26;;;;;;;0.97;0.30;;;;;;;;;;476959;28;1333;-73
2023/09/23 00:55:52;;;;;;;1.20;0.30;;;;;;;;;;478466;28;1271;-72
2023/09/23 00:56:08;;;;;;;0.80;0.40;;;;;;;;;;481331;28;1050;-72
2023/09/23 00:56:24;;;;;;;1.30;0.40;;;;;;;;;;470812;28;1142;-73
2023/09/23 00:56:41;;;;;;;0.93;0.30;;;;;;;;;;480523;28;1173;-73
2023/09/23 00:56:59;;;;;;;0.28;0.25;;;;;;;;;;476119;28;1414;-72
2023/09/23 00:57:14;;;;;;;0.60;0.30;;;;;;;;;;477223;28;1222;-73
2023/09/23 00:57:30;;;;;;;0.45;0.30;;;;;;;;;;472819;28;1336;-73
2023/09/23 00:57:47;;;;;;;0.68;0.20;;;;;;;;;;475268;28;1021;-73
2023/09/23 00:58:02;;;;;;;0.63;0.30;;;;;;;;;;468378;28;1483;-72
2023/09/23 00:58:22;;;;;;;0.50;0.30;;;;;;;;;;479940;28;1221;-73
2023/09/23 00:58:38;;;;;;;0.52;0.30;;;;;;;;;;477003;28;1326;-72
2023/09/23 00:58:53;;;;;;;0.60;0.30;;;;;;;;;;478478;28;934;-72
2023/09/23 00:59:10;;;;;;;1.13;0.30;;;;;;;;;;491310;28;1173;-72
2023/09/23 00:59:25;;;;;;;1.10;0.30;;;;;;;;;;485654;28;879;-73
2023/09/23 00:59:42;;;;;;;0.80;0.30;;;;;;;;;;482568;28;1153;-73
2023/09/23 00:59:58;;;;;;;1.08;0.30;;;;;;;;;;476417;28;1390;-73
2023/09/23 01:00:13;;;;;;;1.73;0.30;;;;;;;;;;484885;28;1918;-73
2023/09/23 01:00:31;;;;;;;1.88;0.40;;;;;;;;;;485197;28;1116;-73
2023/09/23 01:00:48;;;;;;;1.13;0.50;;;;;;;;;;474497;28;1151;-73
2023/09/23 01:01:07;;;;;;;0.65;0.40;;;;;;;;;;480271;28;914;-73
2023/09/23 01:01:22;;;;;;;0.40;0.20;;;;;;;;;;478712;28;1302;-71
2023/09/23 01:01:41;;;;;;;0.57;0.22;;;;;;;;;;478663;28;1269;-73
2023/09/23 01:01:56;;;;;;;1.42;0.40;;;;;;;;;;471090;28;1295;-73
2023/09/23 01:02:13;;;;;;;1.27;0.40;;;;;;;;;;469055;28;1095;-73
2023/09/23 01:02:29;;;;;;;0.90;0.30;;;;;;;;;;478769;28;1153;-73
2023/09/23 01:02:47;;;;;;;0.83;0.30;;;;;;;;;;476111;28;994;-73
2023/09/23 01:03:02;;;;;;;0.50;0.30;;;;;;;;;;474104;28;1430;-73
2023/09/23 01:03:18;;;;;;;1.35;0.30;;;;;;;;;;475348;28;1178;-73
2023/09/23 01:03:36;;;;;;;1.35;0.30;;;;;;;;;;482631;28;1132;-73
2023/09/23 01:03:52;;;;;;;0.57;0.20;;;;;;;;;;469886;28;1267;-73
2023/09/23 01:04:09;;;;;;;0.55;0.38;;;;;;;;;;470200;28;994;-73
2023/09/23 01:04:24;;;;;;;0.63;0.40;;;;;;;;;;478654;28;1101;-73
2023/09/23 01:04:40;;;;;;;0.70;0.30;;;;;;;;;;471555;28;1402;-73
2023/09/23 01:04:55;;;;;;;0.80;0.30;;;;;;;;;;467975;28;1185;-73
2023/09/23 01:05:11;;;;;;;0.57;0.30;;;;;;;;;;466062;28;1432;-74
2023/09/23 01:05:29;;;;;;;0.70;0.30;;;;;;;;;;466164;28;1159;-73
2023/09/23 01:05:45;;;;;;;0.90;0.30;;;;;;;;;;466604;28;891;-73
2023/09/23 01:06:08;;;;;;;0.80;0.32;;;;;;;;;;468894;28;1263;-73
2023/09/23 01:06:27;;;;;;;0.93;0.40;;;;;;;;;;466156;28;1173;-73
2023/09/23 01:06:43;;;;;;;1.30;0.30;;;;;;;;;;471493;28;1173;-73
2023/09/23 01:07:01;;;;;;;1.40;0.40;;;;;;;;;;469810;28;911;-73
2023/09/23 01:07:16;;;;;;;0.77;0.40;;;;;;;;;;468878;28;1182;-73
2023/09/23 01:07:33;;;;;;;0.63;0.30;;;;;;;;;;471098;28;1282;-73
2023/09/23 01:07:48;;;;;;;0.75;0.30;;;;;;;;;;465968;28;1600;-73
2023/09/23 01:08:04;;;;;;;1.83;0.38;;;;;;;;;;466308;28;1143;-73
2023/09/23 01:08:29;;;;;;;1.80;0.30;;;;;;;;;;466951;28;1160;-73
2023/09/23 01:08:47;;;;;;;0.88;0.40;;;;;;;;;;467007;28;1570;-73
2023/09/23 01:09:09;;;;;;;1.33;0.40;;;;;;;;;;468564;28;945;-73
2023/09/23 01:09:26;;;;;;;1.13;0.40;;;;;;;;;;471116;28;1093;-73
2023/09/23 01:09:42;;;;;;;1.10;0.40;;;;;;;;;;471887;28;1030;-73
2023/09/23 01:09:57;;;;;;;1.02;0.30;;;;;;;;;;473000;28;1215;-73
2023/09/23 01:10:12;;;;;;;0.40;0.30;;;;;;;;;;471116;28;1073;-73
2023/09/23 01:10:28;;;;;;;1.40;0.30;;;;;;;;;;471733;28;1217;-73
2023/09/23 01:10:44;;;;;;;1.90;0.30;;;;;;;;;;467690;28;1203;-73
2023/09/23 01:11:00;;;;;;;1.00;0.30;;;;;;;;;;468045;28;1189;-73
2023/09/23 01:11:17;;;;;;;1.48;0.30;;;;;;;;;;469595;28;1878;-73
2023/09/23 01:11:33;;;;;;;1.98;0.40;;;;;;;;;;467213;28;1505;-73
2023/09/23 01:11:52;;;;;;;1.05;0.40;;;;;;;;;;468005;28;939;-74
2023/09/23 01:12:09;;;;;;;0.50;0.30;;;;;;;;;;467498;28;950;-73
2023/09/23 01:12:25;;;;;;;0.60;0.20;;;;;;;;;;466622;28;1313;-73
2023/09/23 01:12:40;;;;;;;0.70;0.30;;;;;;;;;;468229;28;1052;-73
2023/09/23 01:12:57;;;;;;;0.75;0.40;;;;;;;;;;467921;28;1442;-73
2023/09/23 01:13:12;;;;;;;0.90;0.30;;;;;;;;;;469793;28;1090;-73
2023/09/23 01:13:29;;;;;;;1.23;0.30;;;;;;;;;;468260;28;1151;-74
2023/09/23 01:13:48;;;;;;;1.20;0.30;;;;;;;;;;466045;28;1283;-73
2023/09/23 01:14:05;;;;;;;0.95;0.35;;;;;;;;;;465620;28;1192;-73
2023/09/23 01:14:21;;;;;;;0.70;0.30;;;;;;;;;;465115;28;1009;-73
2023/09/23 01:14:37;;;;;;;0.40;0.20;;;;;;;;;;466622;28;1129;-73
2023/09/23 01:14:58;;;;;;;1.05;0.30;;;;;;;;;;466820;28;1247;-73
2023/09/23 01:15:16;;;;;;;0.60;0.30;;;;;;;;;;468061;28;1204;-73
2023/09/23 01:15:32;;;;;;;0.70;0.35;;;;;;;;;;469696;28;1289;-73
2023/09/23 01:15:49;;;;;;;0.98;0.38;;;;;;;;;;469430;28;1302;-73
2023/09/23 01:16:12;;;;;;;0.60;0.30;;;;;;;;;;471054;28;1506;-73
2023/09/23 01:16:28;;;;;;;0.40;0.30;;;;;;;;;;468502;28;1495;-73
2023/09/23 01:16:43;;;;;;;0.90;0.33;;;;;;;;;;469000;28;1372;-73
2023/09/23 01:17:02;;;;;;;0.93;0.30;;;;;;;;;;470418;28;1397;-73
2023/09/23 01:17:17;;;;;;;1.20;0.30;;;;;;;;;;469455;28;1492;-73
2023/09/23 01:17:33;;;;;;;1.20;0.40;;;;;;;;;;468988;28;1950;-73
2023/09/23 01:17:52;;;;;;;1.00;0.40;;;;;;;;;;467339;28;1313;-73
2023/09/23 01:18:08;;;;;;;0.60;0.30;;;;;;;;;;464751;28;1259;-73
2023/09/23 01:18:24;;;;;;;0.60;0.30;;;;;;;;;;466117;28;1267;-73
2023/09/23 01:18:40;;;;;;;1.37;0.40;;;;;;;;;;465645;28;1654;-73
2023/09/23 01:18:55;;;;;;;1.10;0.30;;;;;;;;;;466138;28;1334;-73
2023/09/23 01:19:14;;;;;;;0.50;0.40;;;;;;;;;;464595;28;1436;-73
2023/09/23 01:19:29;;;;;;;1.55;0.45;;;;;;;;;;465403;28;1824;-73
2023/09/23 01:19:45;;;;;;;1.90;0.40;;;;;;;;;;466361;28;1428;-73
2023/09/23 01:20:00;;;;;;;1.67;0.33;;;;;;;;;;466421;28;1659;-73
2023/09/23 01:20:16;;;;;;;1.13;0.30;;;;;;;;;;464068;28;2013;-73
2023/09/23 01:20:31;;;;;;;1.50;0.40;;;;;;;;;;464433;28;1483;-74
2023/09/23 01:20:51;;;;;;;1.27;0.40;;;;;;;;;;466154;28;1304;-73
2023/09/23 01:21:08;;;;;;;1.48;0.30;;;;;;;;;;468082;28;1623;-73
2023/09/23 01:21:23;;;;;;;1.58;0.40;;;;;;;;;;468692;28;1452;-74
2023/09/23 01:21:39;;;;;;;0.67;0.40;;;;;;;;;;466914;28;1653;-73
2023/09/23 01:21:54;;;;;;;0.40;0.38;;;;;;;;;;468016;28;1275;-73
2023/09/23 01:22:09;;;;;;;0.90;0.40;;;;;;;;;;467205;28;1595;-73
2023/09/23 01:22:25;;;;;;;0.83;0.40;;;;;;;;;;465742;28;1396;-74
2023/09/23 01:22:40;;;;;;;1.80;0.30;;;;;;;;;;467583;28;1271;-73
2023/09/23 01:22:55;;;;;;;2.40;0.40;;;;;;;;;;465805;28;1544;-73
2023/09/23 01:23:12;;;;;;;1.20;0.40;;;;;;;;;;465221;28;1739;-73
2023/09/23 01:23:27;;;;;;;1.15;0.40;;;;;;;;;;465712;28;1700;-73
2023/09/23 01:23:46;;;;;;;0.82;0.40;;;;;;;;;;465023;28;1488;-73
2023/09/23 01:24:01;;;;;;;1.33;0.38;;;;;;;;;;466190;28;1311;-73
2023/09/23 01:24:17;;;;;;;2.50;0.50;;;;;;;;;;466972;28;1491;-73
2023/09/23 01:24:34;;;;;;;1.83;0.40;;;;;;;;;;464799;28;1337;-73
2023/09/23 01:24:49;;;;;;;0.90;0.30;;;;;;;;;;464905;28;1326;-73
2023/09/23 01:25:05;;;;;;;0.65;0.20;;;;;;;;;;467358;28;1333;-73
2023/09/23 01:25:21;;;;;;;0.60;0.30;;;;;;;;;;468233;28;1360;-73
2023/09/23 01:25:37;;;;;;;0.40;0.30;;;;;;;;;;467144;28;1279;-73
2023/09/23 01:25:52;;;;;;;0.53;0.40;;;;;;;;;;465688;28;1328;-73
2023/09/23 01:26:11;;;;;;;0.50;0.30;;;;;;;;;;464115;28;1284;-75
2023/09/23 01:26:27;;;;;;;0.40;0.30;;;;;;;;;;466370;28;1610;-73
2023/09/23 01:26:51;;;;;;;0.70;0.35;;;;;;;;;;465388;28;1327;-73
2023/09/23 01:27:08;;;;;;;1.30;0.40;;;;;;;;;;467093;28;1411;-73
2023/09/23 01:27:24;;;;;;;1.88;0.50;;;;;;;;;;467097;28;1457;-73
2023/09/23 01:27:40;;;;;;;1.27;0.40;;;;;;;;;;469640;28;1403;-73
2023/09/23 01:27:56;;;;;;;0.55;0.30;;;;;;;;;;471114;28;1366;-73
2023/09/23 01:28:11;;;;;;;0.70;0.30;;;;;;;;;;468992;28;1317;-73
2023/09/23 01:28:27;;;;;;;1.30;0.40;;;;;;;;;;470899;28;1518;-73
2023/09/23 01:28:43;;;;;;;1.38;0.45;;;;;;;;;;469301;28;1732;-73
2023/09/23 01:28:58;;;;;;;0.70;0.35;;;;;;;;;;468760;28;1463;-73
2023/09/23 01:29:14;;;;;;;0.50;0.30;;;;;;;;;;467836;28;1522;-73
2023/09/23 01:29:29;;;;;;;1.17;0.50;;;;;;;;;;470636;28;1382;-73
2023/09/23 01:29:52;;;;;;;1.05;0.43;;;;;;;;;;469425;28;1356;-73
2023/09/23 01:30:07;;;;;;;0.70;0.35;;;;;;;;;;468798;28;1205;-73
2023/09/23 01:30:24;;;;;;;1.20;0.40;;;;;;;;;;468878;28;1520;-74
2023/09/23 01:30:44;;;;;;;1.17;0.40;;;;;;;;;;469493;28;1586;-73
2023/09/23 01:31:02;;;;;;;0.60;0.40;;;;;;;;;;468936;28;1496;-74
2023/09/23 01:31:21;;;;;;;0.70;0.40;;;;;;;;;;468019;28;1402;-73
2023/09/23 01:31:36;;;;;;;0.77;0.30;;;;;;;;;;468465;28;1349;-73
2023/09/23 01:32:10;;;;;;;0.70;0.30;;;;;;;;;;467611;28;1469;-73
2023/09/23 01:32:41;;;;;;;0.90;0.40;;;;;;;;;;469209;28;1476;-73
2023/09/23 01:32:56;;;;;;;1.98;0.40;;;;;;;;;;468790;28;1284;-72
2023/09/23 01:33:14;;;;;;;1.80;0.37;;;;;;;;;;469404;28;1331;-73
2023/09/23 01:33:29;;;;;;;0.88;0.40;;;;;;;;;;464511;28;1326;-73
2023/09/23 01:33:44;;;;;;;0.52;0.40;;;;;;;;;;464727;28;1374;-73
2023/09/23 01:34:01;;;;;;;0.50;0.30;;;;;;;;;;466941;28;1398;-73
2023/09/23 01:34:16;;;;;;;0.50;0.35;;;;;;;;;;466761;28;1362;-73
2023/09/23 01:34:32;;;;;;;0.47;0.40;;;;;;;;;;466328;28;1378;-73
2023/09/23 01:34:48;;;;;;;0.90;0.40;;;;;;;;;;467513;28;1354;-73
2023/09/23 01:35:05;;;;;;;1.48;0.40;;;;;;;;;;468858;28;1305;-73
2023/09/23 01:35:20;;;;;;;1.05;0.40;;;;;;;;;;469005;28;1351;-73
2023/09/23 01:35:36;;;;;;;0.70;0.40;;;;;;;;;;466910;28;1653;-73
2023/09/23 01:35:51;;;;;;;1.05;0.40;;;;;;;;;;466115;28;1491;-73
2023/09/23 01:36:06;;;;;;;0.77;0.37;;;;;;;;;;466258;28;1452;-73
2023/09/23 01:36:22;;;;;;;0.50;0.40;;;;;;;;;;466773;28;1462;-72
2023/09/23 01:36:37;;;;;;;0.60;0.40;;;;;;;;;;469096;28;1435;-73
2023/09/23 01:36:53;;;;;;;0.90;0.40;;;;;;;;;;468150;28;1415;-73
2023/09/23 01:37:09;;;;;;;0.85;0.40;;;;;;;;;;468279;28;1489;-73
2023/09/23 01:37:24;;;;;;;1.60;0.47;;;;;;;;;;472086;28;1584;-73
2023/09/23 01:37:40;;;;;;;1.90;0.50;;;;;;;;;;469816;28;1619;-73
2023/09/23 01:37:55;;;;;;;0.90;0.40;;;;;;;;;;471693;28;1379;-73
2023/09/23 01:38:11;;;;;;;1.10;0.60;;;;;;;;;;474591;28;1468;-73
2023/09/23 01:38:26;;;;;;;1.17;0.68;;;;;;;;;;470915;28;1316;-73
2023/09/23 01:38:41;;;;;;;0.90;0.37;;;;;;;;;;468829;28;1631;-73
2023/09/23 01:38:57;;;;;;;0.83;0.33;;;;;;;;;;469137;28;1620;-73
2023/09/23 01:39:13;;;;;;;0.80;0.40;;;;;;;;;;469323;28;1482;-73
2023/09/23 01:39:28;;;;;;;0.60;0.37;;;;;;;;;;468451;28;1350;-73
2023/09/23 01:39:44;;;;;;;0.70;0.35;;;;;;;;;;470292;28;1329;-73
2023/09/23 01:39:59;;;;;;;1.20;0.40;;;;;;;;;;467082;28;1503;-74
2023/09/23 01:40:17;;;;;;;1.10;0.40;;;;;;;;;;465466;28;2013;-73
2023/09/23 01:40:36;;;;;;;0.75;0.40;;;;;;;;;;465280;28;1325;-73
2023/09/23 01:40:53;;;;;;;0.80;0.43;;;;;;;;;;464277;28;1525;-73
2023/09/23 01:41:08;;;;;;;0.63;0.40;;;;;;;;;;467687;28;1640;-73
2023/09/23 01:41:25;;;;;;;1.40;0.30;;;;;;;;;;466520;28;1446;-73
2023/09/23 01:41:40;;;;;;;1.73;0.30;;;;;;;;;;467669;28;1484;-73
2023/09/23 01:41:56;;;;;;;1.60;0.30;;;;;;;;;;467374;28;1365;-73
2023/09/23 01:42:11;;;;;;;1.17;0.30;;;;;;;;;;468757;28;1356;-73
2023/09/23 01:42:30;;;;;;;0.70;0.30;;;;;;;;;;469260;28;1324;-73
2023/09/23 01:42:48;;;;;;;1.08;0.40;;;;;;;;;;470264;28;1469;-73
2023/09/23 01:43:11;;;;;;;0.73;0.40;;;;;;;;;;471485;28;1275;-73